Time;durP1;ratioP1;P1;durP2;ratioP2;P2;SDS_P1;SDS_P2;PMS_P1;PMS_P2;Temp;Humidity;BMP_temperature;BMP_pressure;BME280_temperature;BME280_humidity;BME280_pressure;Samples;Min_cycle;Max_cycle;Signal;HPM_P1;HPM_P2
2022/07/09 00:01:42;;;;;;;4.95;3.20;;;;;;;21.78;nan;100602.53;5022675;28;20033;-75
2022/07/09 00:04:08;;;;;;;6.53;3.00;;;;;;;21.73;nan;100505.34;5023726;28;20053;-72
2022/07/09 00:06:35;;;;;;;7.75;2.95;;;;;;;21.72;nan;100525.22;5029325;28;20059;-75
2022/07/09 00:09:01;;;;;;;9.63;3.00;;;;;;;21.66;nan;100552.09;5024366;28;20088;-75
2022/07/09 00:11:26;;;;;;;7.95;3.63;;;;;;;21.68;nan;100533.03;5024232;28;20414;-75
2022/07/09 00:13:52;;;;;;;6.10;2.78;;;;;;;21.66;nan;100519.16;5037894;28;20041;-74
2022/07/09 00:16:17;;;;;;;10.30;3.38;;;;;;;21.68;nan;100541.09;5017702;28;20041;-76
2022/07/09 00:18:43;;;;;;;8.23;2.80;;;;;;;21.66;nan;100546.72;5024607;28;20048;-75
2022/07/09 00:21:08;;;;;;;7.40;2.72;;;;;;;21.62;nan;100529.69;5018011;28;20080;-75
2022/07/09 00:23:34;;;;;;;3.30;2.38;;;;;;;21.60;nan;100566.69;5027766;28;20030;-75
2022/07/09 00:25:59;;;;;;;5.60;2.80;;;;;;;;;;5018596;28;20042;-74
2022/07/09 00:28:24;;;;;;;4.07;2.88;;;;;;;21.50;nan;100558.00;5022579;28;20511;-75
2022/07/09 00:30:50;;;;;;;9.25;3.50;;;;;;;21.49;nan;100577.88;5022065;28;20045;-75
2022/07/09 00:33:15;;;;;;;4.03;2.90;;;;;;;21.31;nan;100539.28;5027347;28;20040;-75
2022/07/09 00:35:41;;;;;;;9.25;3.30;;;;;;;21.38;nan;100563.81;5031522;28;20041;-75
2022/07/09 00:38:06;;;;;;;7.15;3.22;;;;;;;21.28;nan;100601.47;5025657;28;20036;-76
2022/07/09 00:40:34;;;;;;;8.18;3.95;;;;;;;21.25;nan;100562.69;5024645;28;20044;-74
2022/07/09 00:43:00;;;;;;;5.07;3.03;;;;;;;21.28;nan;100567.44;5023340;28;20053;-74
2022/07/09 00:45:26;;;;;;;6.15;2.78;;;;;;;21.20;nan;100565.44;5024820;28;20034;-75
2022/07/09 00:47:51;;;;;;;7.40;2.70;;;;;;;21.20;nan;100533.31;5027114;28;20021;-76
2022/07/09 00:50:17;;;;;;;6.13;2.58;;;;;;;21.18;nan;100517.53;5002563;28;20033;-76
2022/07/09 00:52:44;;;;;;;16.33;2.60;;;;;;;21.13;nan;100555.09;5015026;28;20681;-75
2022/07/09 00:55:09;;;;;;;18.23;2.90;;;;;;;;;;5026382;28;20025;-66
2022/07/09 00:57:35;;;;;;;7.72;2.30;;;;;;;21.06;nan;100605.53;5022828;28;20139;-66
2022/07/09 01:00:01;;;;;;;14.23;2.67;;;;;;;20.99;nan;100570.31;5025745;28;20061;-66
2022/07/09 01:02:26;;;;;;;14.57;2.70;;;;;;;20.98;nan;100566.84;5026344;28;20033;-75
2022/07/09 01:04:52;;;;;;;10.43;2.38;;;;;;;20.91;nan;100563.72;5019556;28;20033;-77
2022/07/09 01:07:17;;;;;;;12.77;2.47;;;;;;;20.89;nan;100581.16;5020502;28;20037;-75
2022/07/09 01:09:43;;;;;;;16.02;2.17;;;;;;;20.81;nan;100561.22;5035682;28;20049;-76
2022/07/09 01:12:08;;;;;;;12.95;2.45;;;;;;;20.80;nan;100567.63;5036912;28;20105;-76
2022/07/09 01:14:34;;;;;;;11.48;2.00;;;;;;;20.73;nan;100632.22;5052759;28;20038;-75
2022/07/09 01:17:02;;;;;;;7.13;2.00;;;;;;;20.72;nan;100560.25;5040368;28;20026;-76
2022/07/09 01:19:28;;;;;;;13.07;1.75;;;;;;;20.64;nan;100566.25;5034779;28;20051;-75
2022/07/09 01:21:54;;;;;;;7.10;1.60;;;;;;;20.60;nan;100558.78;5026531;28;20033;-75
2022/07/09 01:24:20;;;;;;;13.77;1.45;;;;;;;20.61;nan;100564.94;5022360;28;20089;-75
2022/07/09 01:26:47;;;;;;;3.33;1.10;;;;;;;20.55;nan;100577.59;5025096;28;20094;-75
2022/07/09 01:29:12;;;;;;;4.88;1.25;;;;;;;20.44;nan;100572.63;5027583;28;20057;-75
2022/07/09 01:31:38;;;;;;;8.60;1.20;;;;;;;20.39;nan;100541.38;5023001;28;20033;-75
2022/07/09 01:34:03;;;;;;;9.50;1.45;;;;;;;;;;5000187;28;20387;-75
2022/07/09 01:36:28;;;;;;;7.40;1.37;;;;;;;20.29;nan;100523.59;5025608;28;20037;-76
2022/07/09 01:38:54;;;;;;;12.35;1.70;;;;;;;20.23;nan;100580.09;5017979;28;20271;-73
2022/07/09 01:41:19;;;;;;;5.68;1.35;;;;;;;20.12;nan;100552.69;5024680;28;20436;-75
2022/07/09 01:43:45;;;;;;;11.77;2.10;;;;;;;20.16;nan;100573.22;5024989;28;20459;-75
2022/07/09 01:46:10;;;;;;;3.45;1.30;;;;;;;20.08;nan;100568.47;5023021;28;20038;-75
2022/07/09 01:48:35;;;;;;;10.95;1.35;;;;;;;20.01;nan;100604.66;5020630;28;20488;-77
2022/07/09 01:51:01;;;;;;;3.03;1.20;;;;;;;19.98;nan;100528.50;5024946;28;20080;-75
2022/07/09 01:53:27;;;;;;;6.28;1.33;;;;;;;;;;5018599;28;20030;-76
2022/07/09 01:55:52;;;;;;;12.02;1.42;;;;;;;19.78;nan;100550.91;5024205;28;20048;-76
2022/07/09 01:58:18;;;;;;;4.32;1.33;;;;;;;19.84;nan;100567.66;5022805;28;20136;-76
2022/07/09 02:00:44;;;;;;;3.42;1.30;;;;;;;19.83;nan;100561.53;5022496;28;20036;-75
2022/07/09 02:03:09;;;;;;;2.55;1.10;;;;;;;;;;5018191;28;20427;-75
2022/07/09 02:05:35;;;;;;;3.88;1.40;;;;;;;19.78;nan;100580.28;5019942;28;20041;-76
2022/07/09 02:08:00;;;;;;;2.42;1.20;;;;;;;19.72;nan;100584.88;5027027;28;20053;-76
2022/07/09 02:10:25;;;;;;;3.33;1.35;;;;;;;19.71;nan;100551.22;5021801;28;20069;-74
2022/07/09 02:12:51;;;;;;;6.05;1.70;;;;;;;;;;5030947;28;20527;-76
2022/07/09 02:15:16;;;;;;;7.00;1.50;;;;;;;19.61;nan;100591.38;5026128;28;20506;-76
2022/07/09 02:17:42;;;;;;;3.45;1.45;;;;;;;19.64;nan;100644.22;5022051;28;20030;-76
2022/07/09 02:20:08;;;;;;;2.53;1.42;;;;;;;19.63;nan;100589.19;5029561;28;20035;-76
2022/07/09 02:22:34;;;;;;;3.55;1.75;;;;;;;19.51;nan;100576.22;5023535;28;20125;-76
2022/07/09 02:25:00;;;;;;;5.28;1.42;;;;;;;19.54;nan;100613.06;5038969;28;20780;-77
2022/07/09 02:27:25;;;;;;;8.57;1.85;;;;;;;;;;5027107;28;20028;-75
2022/07/09 02:29:50;;;;;;;7.82;1.77;;;;;;;19.38;nan;100603.56;5019574;28;20373;-76
2022/07/09 02:32:16;;;;;;;4.30;1.80;;;;;;;19.38;nan;100578.75;5028576;28;20423;-74
2022/07/09 02:34:41;;;;;;;5.70;1.80;;;;;;;19.36;nan;100599.59;5020830;28;20061;-76
2022/07/09 02:37:07;;;;;;;5.32;1.73;;;;;;;;;;5020284;28;20038;-76
2022/07/09 02:39:32;;;;;;;3.35;1.80;;;;;;;19.24;nan;100582.03;5022945;28;20037;-75
2022/07/09 02:41:58;;;;;;;2.80;1.35;;;;;;;19.19;nan;100535.91;5032247;28;20029;-77
2022/07/09 02:44:24;;;;;;;6.97;1.70;;;;;;;19.17;nan;100599.44;5028955;28;20022;-76
2022/07/09 02:46:49;;;;;;;9.43;1.55;;;;;;;19.06;nan;100570.16;5023431;28;20099;-76
2022/07/09 02:49:15;;;;;;;3.45;1.70;;;;;;;19.04;nan;100598.19;5027502;28;20022;-74
2022/07/09 02:51:41;;;;;;;6.88;1.73;;;;;;;19.04;nan;100569.63;5028097;28;20029;-75
2022/07/09 02:54:06;;;;;;;4.70;1.70;;;;;;;18.98;nan;100572.59;5023870;28;20026;-75
2022/07/09 02:56:31;;;;;;;5.00;1.80;;;;;;;18.90;nan;100584.66;5017874;28;20491;-76
2022/07/09 02:58:57;;;;;;;10.95;1.80;;;;;;;18.86;nan;100589.75;5022035;28;20060;-65
2022/07/09 03:01:22;;;;;;;6.75;1.90;;;;;;;18.88;nan;100584.94;5025368;28;20120;-66
2022/07/09 03:03:48;;;;;;;4.93;1.58;;;;;;;18.86;nan;100581.72;5027297;28;20030;-65
2022/07/09 03:06:13;;;;;;;10.32;1.90;;;;;;;18.83;nan;100576.97;5026999;28;20545;-65
2022/07/09 03:08:39;;;;;;;3.83;1.63;;;;;;;;;;5031637;28;20056;-64
2022/07/09 03:11:06;;;;;;;4.88;1.75;;;;;;;18.79;nan;100642.59;5037089;28;20550;-65
2022/07/09 03:13:33;;;;;;;6.68;1.83;;;;;;;18.80;nan;100630.88;5019416;28;20495;-66
2022/07/09 03:15:58;;;;;;;5.43;1.88;;;;;;;18.77;nan;100583.41;5035612;28;20048;-64
2022/07/09 03:18:24;;;;;;;4.97;1.90;;;;;;;18.76;nan;100575.63;5038206;28;20033;-65
2022/07/09 03:20:50;;;;;;;4.70;1.63;;;;;;;18.74;nan;100543.88;5034017;28;20037;-67
2022/07/09 03:23:16;;;;;;;10.00;1.73;;;;;;;18.72;nan;100570.03;5034922;28;20108;-66
2022/07/09 03:25:42;;;;;;;2.33;1.60;;;;;;;18.70;nan;100577.53;5038792;28;20087;-66
2022/07/09 03:28:09;;;;;;;2.70;1.50;;;;;;;18.62;nan;100580.78;5034018;28;20072;-66
2022/07/09 03:30:34;;;;;;;2.30;1.40;;;;;;;;;;5030338;28;20569;-75
2022/07/09 03:32:59;;;;;;;5.15;1.60;;;;;;;18.63;nan;100587.72;5034897;28;20089;-76
2022/07/09 03:35:25;;;;;;;8.25;1.65;;;;;;;18.62;nan;100634.91;5041193;28;20484;-75
2022/07/09 03:37:50;;;;;;;9.20;1.52;;;;;;;;;;5039650;28;20111;-76
2022/07/09 03:40:16;;;;;;;5.20;1.50;;;;;;;;;;5041119;28;20048;-74
2022/07/09 03:42:41;;;;;;;4.15;1.42;;;;;;;;;;5043186;28;20040;-75
2022/07/09 03:45:07;;;;;;;6.43;1.80;;;;;;;18.52;nan;100588.81;5038279;28;20087;-75
2022/07/09 03:47:32;;;;;;;5.75;1.52;;;;;;;18.44;nan;100571.53;5041997;28;20559;-74
2022/07/09 03:49:57;;;;;;;4.63;1.60;;;;;;;18.47;nan;100579.75;5044598;28;20031;-75
2022/07/09 03:52:23;;;;;;;2.60;1.50;;;;;;;;;;5030028;28;20033;-76
2022/07/09 03:54:48;;;;;;;2.33;1.43;;;;;;;18.40;nan;100539.25;5039438;28;20064;-76
2022/07/09 03:57:13;;;;;;;3.55;2.05;;;;;;;;;;5043083;28;20310;-76
2022/07/09 03:59:39;;;;;;;3.17;1.48;;;;;;;18.41;nan;100586.22;5040427;28;20116;-75
2022/07/09 04:02:05;;;;;;;3.75;1.90;;;;;;;;;;5028698;28;20030;-75
2022/07/09 04:04:31;;;;;;;3.97;1.80;;;;;;;18.43;nan;100537.91;5026947;28;20438;-75
2022/07/09 04:06:56;;;;;;;5.13;1.75;;;;;;;18.44;nan;100593.66;5032887;28;20526;-74
2022/07/09 04:09:22;;;;;;;4.90;1.75;;;;;;;18.48;nan;100600.03;5032956;28;20025;-75
2022/07/09 04:11:47;;;;;;;7.63;1.70;;;;;;;18.45;nan;100586.44;5029734;28;20033;-75
2022/07/09 04:14:14;;;;;;;10.35;1.80;;;;;;;18.44;nan;100532.31;5031634;28;20030;-77
2022/07/09 04:16:39;;;;;;;2.95;1.80;;;;;;;;;;5030234;28;20037;-75
2022/07/09 04:19:05;;;;;;;4.18;1.85;;;;;;;;;;5027894;28;20029;-74
2022/07/09 04:21:30;;;;;;;5.28;1.80;;;;;;;18.54;nan;100605.34;5031374;28;20041;-74
2022/07/09 04:23:55;;;;;;;4.00;1.90;;;;;;;;;;5030938;28;20025;-75
2022/07/09 04:26:21;;;;;;;6.43;1.73;;;;;;;18.52;nan;100644.81;5022771;28;20394;-76
2022/07/09 04:28:46;;;;;;;8.15;2.97;;;;;;;18.51;nan;100598.69;5024521;28;20017;-74
2022/07/09 04:31:18;;;;;;;5.30;2.30;;;;;;;18.58;nan;100614.38;5024756;28;20033;-73
2022/07/09 04:33:44;;;;;;;4.68;2.10;;;;;;;;;;5019699;28;20038;-75
2022/07/09 04:36:10;;;;;;;6.18;2.00;;;;;;;;;;5026929;28;20041;-75
2022/07/09 04:38:35;;;;;;;3.30;1.90;;;;;;;18.59;nan;100619.47;5033835;28;20041;-75
2022/07/09 04:41:01;;;;;;;3.38;2.05;;;;;;;18.53;nan;100609.88;5014939;28;20026;-75
2022/07/09 04:43:26;;;;;;;2.63;2.10;;;;;;;;;;5031331;28;20506;-75
2022/07/09 04:45:52;;;;;;;4.37;2.40;;;;;;;18.54;nan;100557.34;5031102;28;20033;-75
2022/07/09 04:48:17;;;;;;;4.53;2.05;;;;;;;;;;5018202;28;20057;-73
2022/07/09 04:50:42;;;;;;;3.38;2.13;;;;;;;18.46;nan;100674.19;5021772;28;20459;-75
2022/07/09 04:53:08;;;;;;;4.30;2.08;;;;;;;18.48;nan;100632.03;5022435;28;20129;-76
2022/07/09 04:55:33;;;;;;;5.97;2.28;;;;;;;18.49;nan;100625.63;5023771;28;20045;-75
2022/07/09 04:57:59;;;;;;;3.50;2.00;;;;;;;18.52;nan;100602.94;5023561;28;20026;-75
2022/07/09 05:00:24;;;;;;;5.75;2.50;;;;;;;18.54;nan;100637.34;5028229;28;20126;-76
2022/07/09 05:02:50;;;;;;;5.20;2.10;;;;;;;18.56;nan;100633.34;5025013;28;20041;-76
2022/07/09 05:05:15;;;;;;;3.25;2.38;;;;;;;18.49;nan;100689.63;5017085;28;20388;-75
2022/07/09 05:07:44;;;;;;;3.97;2.10;;;;;;;18.58;nan;100625.06;5022847;28;20072;-75
2022/07/09 05:10:09;;;;;;;6.07;2.30;;;;;;;18.63;nan;100659.72;5017690;28;20029;-76
2022/07/09 05:12:36;;;;;;;4.90;2.55;;;;;;;18.64;nan;100674.66;5030896;28;20107;-76
2022/07/09 05:15:01;;;;;;;6.80;2.40;;;;;;;18.71;nan;100648.47;5028128;28;20034;-75
2022/07/09 05:17:26;;;;;;;2.72;2.17;;;;;;;;;;5017784;28;20124;-76
2022/07/09 05:19:52;;;;;;;3.50;2.50;;;;;;;18.94;nan;100652.44;5014426;28;20088;-76
2022/07/09 05:22:17;;;;;;;5.18;2.40;;;;;;;19.02;nan;100651.06;5025820;28;20290;-76
2022/07/09 05:24:43;;;;;;;3.45;2.60;;;;;;;;;;5019918;28;20125;-76
2022/07/09 05:27:11;;;;;;;5.50;2.80;;;;;;;;;;5022971;28;20571;-75
2022/07/09 05:29:37;;;;;;;3.78;2.72;;;;;;;19.26;nan;100665.31;5023110;28;20072;-76
2022/07/09 05:32:03;;;;;;;3.25;2.80;;;;;;;19.18;nan;100644.56;5022715;28;20061;-76
2022/07/09 05:34:29;;;;;;;5.90;2.80;;;;;;;19.21;nan;100664.56;5023691;28;20056;-76
2022/07/09 05:36:55;;;;;;;9.00;2.80;;;;;;;19.18;nan;100668.59;5020073;28;20040;-75
2022/07/09 05:39:21;;;;;;;10.15;3.08;;;;;;;;;;5017892;28;20067;-76
2022/07/09 05:41:46;;;;;;;4.60;2.95;;;;;;;;;;5029422;28;20483;-76
2022/07/09 05:44:11;;;;;;;7.00;2.58;;;;;;;19.20;nan;100669.13;5029921;28;20079;-76
2022/07/09 05:46:37;;;;;;;7.75;2.72;;;;;;;19.18;nan;100647.22;5027511;28;20060;-77
2022/07/09 05:49:02;;;;;;;2.80;2.30;;;;;;;19.23;nan;100676.56;5026831;28;20029;-76
2022/07/09 05:51:28;;;;;;;4.88;2.42;;;;;;;19.22;nan;100623.44;5028947;28;20380;-75
2022/07/09 05:53:54;;;;;;;5.45;2.65;;;;;;;19.24;nan;100718.19;5025858;28;20422;-75
2022/07/09 05:56:19;;;;;;;5.82;2.50;;;;;;;19.28;nan;100660.50;5028109;28;20045;-76
2022/07/09 05:58:45;;;;;;;4.30;2.38;;;;;;;19.41;nan;100671.63;5032091;28;20041;-76
2022/07/09 06:01:11;;;;;;;3.75;2.40;;;;;;;19.38;nan;100667.66;5026984;28;20116;-76
2022/07/09 06:03:37;;;;;;;3.40;2.47;;;;;;;19.31;nan;100675.19;5026425;28;20413;-75
2022/07/09 06:06:02;;;;;;;4.75;2.42;;;;;;;19.30;nan;100669.03;5023627;28;20040;-75
2022/07/09 06:08:28;;;;;;;5.38;2.50;;;;;;;19.40;nan;100670.84;5024212;28;20472;-75
2022/07/09 06:10:53;;;;;;;2.65;2.45;;;;;;;19.38;nan;100656.19;5036713;28;20388;-76
2022/07/09 06:13:18;;;;;;;3.65;2.60;;;;;;;;;;5021348;28;20126;-76
2022/07/09 06:15:44;;;;;;;7.00;2.70;;;;;;;;;;5026102;28;20075;-76
2022/07/09 06:18:09;;;;;;;4.18;2.60;;;;;;;19.49;nan;100679.06;5020843;28;20041;-76
2022/07/09 06:20:34;;;;;;;6.22;3.03;;;;;;;;;;5026320;28;20121;-75
2022/07/09 06:23:00;;;;;;;4.57;2.47;;;;;;;19.52;nan;100673.19;5036858;28;20418;-74
2022/07/09 06:25:25;;;;;;;3.70;2.70;;;;;;;19.57;nan;100667.78;5028115;28;20263;-76
2022/07/09 06:27:51;;;;;;;6.25;2.78;;;;;;;19.60;nan;100677.91;5021706;28;20022;-75
2022/07/09 06:30:16;;;;;;;4.07;2.70;;;;;;;19.64;nan;100678.97;5030213;28;20120;-74
2022/07/09 06:32:42;;;;;;;5.85;2.78;;;;;;;19.71;nan;100692.84;5030734;28;20500;-75
2022/07/09 06:35:08;;;;;;;3.72;2.40;;;;;;;19.75;nan;100652.97;5029184;28;20029;-75
2022/07/09 06:37:33;;;;;;;10.27;2.92;;;;;;;19.84;nan;100653.19;5022497;28;20073;-74
2022/07/09 06:39:59;;;;;;;3.28;2.40;;;;;;;19.85;nan;100668.13;5028613;28;20033;-75
2022/07/09 06:42:25;;;;;;;8.88;2.97;;;;;;;19.82;nan;100722.94;5029627;28;20079;-76
2022/07/09 06:44:50;;;;;;;4.50;2.55;;;;;;;19.72;nan;100661.56;5029349;28;20558;-76
2022/07/09 06:47:16;;;;;;;7.90;2.63;;;;;;;19.71;nan;100681.34;5028191;28;20057;-75
2022/07/09 06:49:42;;;;;;;3.30;2.95;;;;;;;19.62;nan;100664.28;5027360;28;20037;-77
2022/07/09 06:52:07;;;;;;;4.88;2.70;;;;;;;19.61;nan;100734.81;5027120;28;20034;-77
2022/07/09 06:54:35;;;;;;;6.22;3.35;;;;;;;19.53;nan;100670.22;5005094;28;20083;-75
2022/07/09 06:57:01;;;;;;;9.43;2.72;;;;;;;19.55;nan;100677.97;5025597;28;20061;-77
2022/07/09 06:59:26;;;;;;;4.22;2.53;;;;;;;;;;5026729;28;20021;-76
2022/07/09 07:01:52;;;;;;;4.33;2.70;;;;;;;19.61;nan;100740.16;5024754;28;20061;-77
2022/07/09 07:04:17;;;;;;;4.03;2.65;;;;;;;19.59;nan;100638.94;5022219;28;20302;-67
2022/07/09 07:06:43;;;;;;;4.15;3.33;;;;;;;19.62;nan;100649.06;5019390;28;20395;-77
2022/07/09 07:09:09;;;;;;;4.40;2.92;;;;;;;19.57;nan;100669.69;5022459;28;20923;-77
2022/07/09 07:11:35;;;;;;;5.28;2.67;;;;;;;19.57;nan;100667.78;5031447;28;20029;-77
2022/07/09 07:14:00;;;;;;;4.97;2.70;;;;;;;;;;5019776;28;20380;-76
2022/07/09 07:16:25;;;;;;;3.30;2.57;;;;;;;19.72;nan;100672.25;5027382;28;20471;-77
2022/07/09 07:18:51;;;;;;;4.95;2.72;;;;;;;19.72;nan;100666.91;5029116;28;20372;-77
2022/07/09 07:21:16;;;;;;;8.93;2.92;;;;;;;19.69;nan;100660.25;5013522;28;20041;-77
2022/07/09 07:23:42;;;;;;;3.65;3.10;;;;;;;19.73;nan;100647.16;5028732;28;20044;-77
2022/07/09 07:26:07;;;;;;;6.82;2.85;;;;;;;19.77;nan;100673.00;5028896;28;20025;-77
2022/07/09 07:28:33;;;;;;;5.45;2.55;;;;;;;19.89;nan;100656.59;5033858;28;20044;-76
2022/07/09 07:30:59;;;;;;;3.13;2.80;;;;;;;19.87;nan;100719.44;5029360;28;20026;-77
2022/07/09 07:33:25;;;;;;;5.20;3.00;;;;;;;19.92;nan;100680.13;5026347;28;20048;-76
2022/07/09 07:35:50;;;;;;;3.15;2.45;;;;;;;19.87;nan;100666.81;5029032;28;20046;-75
2022/07/09 07:38:15;;;;;;;3.83;2.50;;;;;;;19.95;nan;100686.78;5021444;28;20030;-77
2022/07/09 07:40:42;;;;;;;4.65;2.50;;;;;;;19.92;nan;100671.28;5043302;28;20034;-76
2022/07/09 07:43:10;;;;;;;5.03;2.67;;;;;;;19.90;nan;100673.47;5031165;28;20033;-76
2022/07/09 07:45:35;;;;;;;4.28;2.50;;;;;;;19.96;nan;100696.38;5023579;28;20120;-76
2022/07/09 07:48:01;;;;;;;5.93;2.83;;;;;;;19.96;nan;100685.69;5021786;28;20122;-79
2022/07/09 07:50:26;;;;;;;6.47;2.92;;;;;;;;;;5029232;28;20083;-75
2022/07/09 07:52:52;;;;;;;6.63;3.08;;;;;;;19.99;nan;100655.72;5030372;28;20037;-75
2022/07/09 07:55:17;;;;;;;7.82;3.50;;;;;;;20.02;nan;100700.63;5025127;28;20026;-77
2022/07/09 07:57:43;;;;;;;6.65;2.97;;;;;;;20.05;nan;100692.03;5022113;28;20038;-75
2022/07/09 08:00:09;;;;;;;9.80;3.47;;;;;;;20.10;nan;100748.13;5022925;28;20185;-75
2022/07/09 08:02:34;;;;;;;6.95;3.10;;;;;;;20.07;nan;100694.44;5021063;28;20446;-74
2022/07/09 08:05:01;;;;;;;10.30;3.50;;;;;;;20.07;nan;100695.22;5023847;28;20029;-75
2022/07/09 08:07:26;;;;;;;4.32;3.03;;;;;;;20.07;nan;100697.09;5029051;28;20025;-75
2022/07/09 08:09:52;;;;;;;6.50;3.85;;;;;;;20.08;nan;100696.81;5022195;28;20116;-77
2022/07/09 08:12:17;;;;;;;7.97;3.35;;;;;;;20.09;nan;100700.28;5021334;28;20030;-77
2022/07/09 08:14:43;;;;;;;7.88;3.10;;;;;;;20.10;nan;100686.63;5028176;28;20038;-76
2022/07/09 08:17:08;;;;;;;6.45;3.00;;;;;;;20.17;nan;100702.34;5023205;28;20034;-75
2022/07/09 08:19:34;;;;;;;7.43;3.30;;;;;;;20.16;nan;100741.66;5024060;28;20471;-75
2022/07/09 08:21:59;;;;;;;5.97;3.45;;;;;;;;;;5028686;28;20476;-76
2022/07/09 08:24:25;;;;;;;5.88;2.65;;;;;;;20.17;nan;100700.47;5041958;28;20088;-76
2022/07/09 08:26:50;;;;;;;4.72;3.05;;;;;;;;;;5048972;28;20028;-77
2022/07/09 08:29:15;;;;;;;5.20;2.97;;;;;;;20.16;nan;100858.50;5055886;28;20025;-76
2022/07/09 08:31:41;;;;;;;7.78;3.53;;;;;;;20.13;nan;100662.00;5047914;28;20030;-77
2022/07/09 08:34:06;;;;;;;7.00;2.90;;;;;;;;;;5055312;28;20037;-77
2022/07/09 08:36:32;;;;;;;4.20;2.78;;;;;;;20.22;nan;100693.47;5049758;28;20077;-78
2022/07/09 08:38:57;;;;;;;4.50;2.70;;;;;;;20.14;nan;100684.22;5056309;28;20045;-77
2022/07/09 08:41:23;;;;;;;4.55;3.15;;;;;;;20.15;nan;100693.81;5054931;28;20049;-77
2022/07/09 08:43:53;;;;;;;6.65;3.00;;;;;;;20.17;nan;100688.97;5050618;28;20070;-77
2022/07/09 08:46:19;;;;;;;5.68;3.08;;;;;;;20.13;nan;100688.72;5045735;28;20029;-77
2022/07/09 08:48:45;;;;;;;8.48;3.40;;;;;;;20.16;nan;100633.91;5048381;28;20029;-77
2022/07/09 08:51:13;;;;;;;8.88;3.55;;;;;;;20.13;nan;100678.03;5051763;28;20036;-77
2022/07/09 08:53:43;;;;;;;6.40;3.00;;;;;;;20.10;nan;100654.53;5047706;28;20053;-77
2022/07/09 08:56:10;;;;;;;9.27;3.83;;;;;;;20.08;nan;100696.81;5042150;28;20032;-76
2022/07/09 08:58:35;;;;;;;7.15;3.13;;;;;;;20.08;nan;100688.78;5053030;28;20084;-77
2022/07/09 09:01:01;;;;;;;5.70;3.08;;;;;;;20.05;nan;100705.41;5051515;28;20467;-77
2022/07/09 09:03:27;;;;;;;7.57;3.40;;;;;;;19.93;nan;100747.72;5043686;28;20026;-75
2022/07/09 09:06:04;;;;;;;8.75;3.00;;;;;;;19.94;nan;100704.69;5029020;28;20294;-70
2022/07/09 09:08:38;;;;;;;7.05;3.08;;;;;;;19.81;nan;100771.34;5020393;28;20033;-69
2022/07/09 09:11:05;;;;;;;10.50;3.08;;;;;;;19.88;nan;100713.03;5028450;28;20099;-68
2022/07/09 09:13:31;;;;;;;9.95;3.40;;;;;;;19.80;nan;100721.63;5031286;28;20049;-68
2022/07/09 09:16:07;;;;;;;7.97;2.90;;;;;;;19.70;nan;100712.59;5024979;28;20057;-74
2022/07/09 09:18:46;;;;;;;5.32;3.10;;;;;;;;;;5028052;28;20030;-75
2022/07/09 09:21:12;;;;;;;5.43;3.33;;;;;;;19.68;nan;100708.63;5021346;28;20034;-68
2022/07/09 09:23:49;;;;;;;6.00;3.00;;;;;;;19.75;nan;100719.78;5026931;28;20044;-68
2022/07/09 09:26:23;;;;;;;5.25;2.92;;;;;;;19.63;nan;100713.97;5020764;28;20041;-68
2022/07/09 09:28:51;;;;;;;10.27;3.63;;;;;;;19.57;nan;100709.75;5017207;28;20026;-69
2022/07/09 09:31:24;;;;;;;5.47;3.20;;;;;;;19.63;nan;100716.63;5019309;28;20092;-66
2022/07/09 09:33:54;;;;;;;5.22;3.15;;;;;;;19.63;nan;100704.06;5021850;28;20038;-69
2022/07/09 09:36:32;;;;;;;8.90;3.45;;;;;;;19.70;nan;100703.78;5020204;28;20038;-67
2022/07/09 09:39:16;;;;;;;15.38;3.85;;;;;;;19.79;nan;100699.47;5017338;28;20030;-67
2022/07/09 09:41:44;;;;;;;8.57;3.63;;;;;;;19.71;nan;100697.38;5025100;28;20045;-67
2022/07/09 09:44:13;;;;;;;9.95;3.85;;;;;;;19.85;nan;100692.19;5022143;28;20029;-68
2022/07/09 09:46:40;;;;;;;10.77;3.80;;;;;;;19.89;nan;100679.88;5019395;28;20203;-68
2022/07/09 09:49:10;;;;;;;7.57;3.38;;;;;;;19.92;nan;100720.22;5020265;28;20024;-66
2022/07/09 09:51:47;;;;;;;6.90;3.45;;;;;;;19.97;nan;100684.63;5026925;28;20059;-68
2022/07/09 09:54:14;;;;;;;8.18;3.28;;;;;;;20.13;nan;100675.38;5021550;28;20496;-70
2022/07/09 09:56:39;;;;;;;7.18;4.00;;;;;;;20.26;nan;100676.59;5029966;28;20038;-75
2022/07/09 09:59:05;;;;;;;13.40;3.58;;;;;;;20.38;nan;100678.88;5028425;28;20037;-75
2022/07/09 10:01:31;;;;;;;7.75;3.17;;;;;;;20.50;nan;100673.94;5028957;28;20033;-75
2022/07/09 10:03:57;;;;;;;6.82;3.50;;;;;;;20.62;nan;100683.47;5023232;28;20033;-74
2022/07/09 10:06:24;;;;;;;4.95;3.00;;;;;;;20.80;nan;100674.69;5030912;28;20103;-73
2022/07/09 10:08:50;;;;;;;8.57;2.97;;;;;;;20.89;nan;100667.63;5026215;28;20110;-73
2022/07/09 10:11:16;;;;;;;5.05;3.78;;;;;;;20.78;nan;100658.13;5020957;28;20120;-72
2022/07/09 10:13:56;;;;;;;5.28;3.25;;;;;;;20.88;nan;100673.25;5036430;28;20104;-74
2022/07/09 10:16:39;;;;;;;4.38;2.90;;;;;;;21.03;nan;100663.16;5023896;28;20034;-73
2022/07/09 10:19:05;;;;;;;5.03;2.90;;;;;;;21.33;nan;100634.31;5020846;28;20037;-76
2022/07/09 10:21:39;;;;;;;6.85;3.08;;;;;;;21.52;nan;100636.22;5019857;28;20036;-74
2022/07/09 10:24:06;;;;;;;10.25;2.90;;;;;;;21.66;nan;100642.44;5027126;28;20025;-74
2022/07/09 10:26:42;;;;;;;4.03;2.83;;;;;;;21.67;nan;100692.28;5022385;28;20041;-74
2022/07/09 10:29:27;;;;;;;6.45;2.63;;;;;;;21.79;nan;100640.91;5018844;28;20065;-73
2022/07/09 10:31:53;;;;;;;12.75;4.18;;;;;;;;;;5020128;28;20085;-73
2022/07/09 10:34:34;;;;;;;7.57;2.85;;;;;;;22.05;nan;100641.22;5031831;28;20041;-74
2022/07/09 10:37:00;;;;;;;8.05;3.13;;;;;;;22.25;nan;100608.69;5027432;28;20440;-73
2022/07/09 10:39:26;;;;;;;5.70;2.60;;;;;;;22.27;nan;100656.69;5033139;28;20025;-73
2022/07/09 10:42:06;;;;;;;4.97;2.40;;;;;;;22.38;nan;100646.56;5013137;28;20539;-73
2022/07/09 10:44:36;;;;;;;4.63;2.97;;;;;;;;;;5026137;28;20029;-74
2022/07/09 10:47:02;;;;;;;5.43;2.72;;;;;;;22.64;nan;100638.78;5022244;28;20034;-74
2022/07/09 10:49:28;;;;;;;10.23;3.38;;;;;;;22.65;nan;100638.50;5025974;28;20357;-74
2022/07/09 10:51:57;;;;;;;4.90;2.90;;;;;;;22.65;nan;100632.31;5019254;28;20167;-74
2022/07/09 10:54:23;;;;;;;4.00;3.00;;;;;;;22.72;nan;100643.44;5026431;28;20041;-74
2022/07/09 10:56:48;;;;;;;7.47;2.92;;;;;;;22.81;nan;100638.16;5024327;28;20033;-72
2022/07/09 10:59:18;;;;;;;5.65;3.38;;;;;;;22.90;nan;100636.38;5026854;28;20029;-72
2022/07/09 11:01:44;;;;;;;9.50;3.28;;;;;;;22.94;nan;100623.94;5025576;28;20042;-73
2022/07/09 11:04:11;;;;;;;6.20;2.80;;;;;;;23.09;nan;100626.28;5026302;28;20379;-72
2022/07/09 11:06:49;;;;;;;4.55;3.00;;;;;;;23.23;nan;100625.47;5026620;28;20030;-74
2022/07/09 11:09:15;;;;;;;4.57;2.67;;;;;;;23.31;nan;100608.59;5031257;28;20029;-74
2022/07/09 11:11:44;;;;;;;3.53;3.05;;;;;;;23.43;nan;100618.81;5023910;28;20141;-73
2022/07/09 11:14:11;;;;;;;3.67;2.67;;;;;;;23.61;nan;100611.63;5021349;28;20029;-73
2022/07/09 11:16:37;;;;;;;9.18;2.85;;;;;;;23.71;nan;100633.69;5027601;28;20038;-73
2022/07/09 11:19:15;;;;;;;3.65;2.65;;;;;;;23.80;nan;100604.22;5019730;28;20025;-74
2022/07/09 11:21:41;;;;;;;2.70;2.40;;;;;;;23.90;nan;100606.63;5023528;28;20042;-73
2022/07/09 11:24:19;;;;;;;9.77;5.28;;;;;;;24.04;nan;100627.25;5026088;28;20661;-74
2022/07/09 11:26:48;;;;;;;5.25;3.90;;;;;;;24.16;nan;100632.84;5025457;28;20392;-75
2022/07/09 11:29:17;;;;;;;7.55;3.83;;;;;;;24.28;nan;100608.84;5026497;28;20105;-73
2022/07/09 11:31:46;;;;;;;5.80;4.07;;;;;;;24.40;nan;100614.41;5029916;28;20120;-74
2022/07/09 11:34:12;;;;;;;6.70;3.80;;;;;;;24.50;nan;100605.28;5025106;28;20052;-74
2022/07/09 11:36:39;;;;;;;4.53;2.75;;;;;;;24.60;nan;100601.50;5034029;28;20487;-76
2022/07/09 11:39:05;;;;;;;3.40;2.78;;;;;;;24.66;nan;100596.75;5023463;28;20026;-75
2022/07/09 11:41:44;;;;;;;6.05;2.53;;;;;;;24.70;nan;100597.69;5028718;28;20040;-73
2022/07/09 11:44:12;;;;;;;2.63;1.95;;;;;;;24.61;nan;100589.59;5029482;28;20040;-74
2022/07/09 11:46:37;;;;;;;6.43;2.40;;;;;;;24.72;nan;100593.59;5024754;28;20369;-74
2022/07/09 11:49:14;;;;;;;6.32;3.28;;;;;;;24.76;nan;100581.09;5029287;28;20048;-72
2022/07/09 11:51:39;;;;;;;10.05;3.67;;;;;;;24.79;nan;100510.41;5023777;28;20034;-74
2022/07/09 11:54:05;;;;;;;8.00;3.30;;;;;;;24.95;nan;100585.34;5024309;28;20483;-73
2022/07/09 11:56:45;;;;;;;6.57;2.80;;;;;;;24.97;nan;100629.75;5029846;28;20582;-74
2022/07/09 11:59:11;;;;;;;13.13;5.85;;;;;;;25.07;nan;100561.28;5025221;28;20026;-73